Pagrindinis puslapis
METAR-TAF:

METAR-TAF

Oro uostai :

Palangos oro uostas

Palanga, Lietuva

platuma: 55-55-12N, ilguma: 021-03E, Aukštis: 10 m

Dabartinis oras

Ataskaita buvo paskelbta 22 minutes, ne 02:50 UTC
Vėjas 1 kt nuo kintamojo kryptimis
Temperatūra 2°C
Drėgmė 100%
Slėgis 1007 hPa
Matomumas: 3900 m
Su prošvaistėmis ne aukštis 3100 ft

METAR: EYPA 190250Z VRB01KT 9999 3900N BKN031 02/02 Q1007

Laikas: 06:12 (03:12 UTC)

Prognozė

Ataskaita buvo paskelbta 3 valandos ir 55 minutes, ne 23:17 UTC
Prognozė galioja nuo 19 metu 00 UTC su 19 metu 24 UTC
Vėjas 5 kt nuo kintamojo kryptimis
Matomumas: 6000 m
Su prošvaistėmis ne aukštis 1500 ft
Laikinai
nuo 19 metu 00 UTC su 19 metu 09 UTC
Su prošvaistėmis ne aukštis 1000 ft
Laikinai
nuo 19 metu 09 UTC su 19 metu 15 UTC
Su prošvaistėmis ne aukštis 1000 ft
Išsisklaidę debesys ne aukštis 1500 ft, Liūtiniai kamuoliniai debesys.

TAF: EYPA 182317Z 1900/1924 VRB05KT 6000 BKN015 TEMPO 1900/1909 BKN010 TEMPO 1909/1915 BKN010 SCT015CB

Orai ataskaitas ir orų prognozės (METAR, TAF).

turimą stotys yra geltonos ir raudonos taškus žemėlapyje.

Perkelti pele per norėdami pamatyti stoties vardą.

Tada spustelėkite, norėdami matyti oro stebėjimo ir prognozės.

Norėdami pakeisti žemėlapį: spustelėkite ant žalios mygtukų su juodo kryžiaus žemyn,; žalią mygtuką su brūkšneliu, jei norite nutolinti; arba žalių rodyklių gretimoms žemėlapius.


METAR-TAF: